In Rescue
 
Open Full Screen Window  High Contrast Mode
Wind Gusting 00 knots
06
July 25, 2021 7:55 AM CDT
Weather Information
Wind Direction
  260 °
Wind Speed
  06 kt (7 mph)
Wind Gust
  00 kt (0 mph)
Altimeter
29.90 in
Visibility
10 SM
Temperature
19° C
66° F
Dewpoint
12° C
54° F
Humidity
64%
1hr Rain Fall
00.00 in.
24hr Rain Fall
00.00 in.
Sky Condition
Clear
VFR

METAR KELO 251255Z AUTO 26006KT 10SM CLR 19/12 A2990 RMK AO2

FAA Disclaimer: The data displayed is for advisory purposes only and is not to be used for flight planning or operations.